This is the latest recevied weather packets stored in our database for station/object GW1597. If no packets are shown the sender has not sent any weather packets the latest 10 day(s).
| Time | Temp. | Humidity | Pressure | Rain* | Wind** | Luminosity | Snow |
|---|---|---|---|---|---|---|---|
| 1777017430 | 9.44° C | 95% | 987.8 hPa | 0 mm | - | - | - |
| 1777016732 | 10° C | 96% | 987.8 hPa | 0 mm | - | - | - |
| 1777014585 | 10° C | 95% | 987.4 hPa | 0 mm | - | - | - |
| 1777014206 | 10° C | 95% | 987.4 hPa | 0 mm | - | - | - |
| 1777012769 | 10° C | 95% | 987.1 hPa | 0 mm | - | - | - |
| 1777007351 | 11.11° C | 95% | 987.1 hPa | 0 mm | - | - | - |
| 1777005554 | 11.11° C | 94% | 987.4 hPa | 0 mm | - | - | - |
| 1777003784 | 11.67° C | 94% | 987.4 hPa | 0 mm | - | - | - |
| 1777003433 | 11.67° C | 94% | 987.4 hPa | 0 mm | - | - | - |
| 1776999104 | 12.78° C | 92% | 987.8 hPa | 0 mm | - | - | - |
| 1776996951 | 13.89° C | 91% | 987.4 hPa | 0 mm | - | - | - |
| 1776995852 | 14.44° C | 90% | 987.4 hPa | 0 mm | - | - | - |
| 1776994047 | 15° C | 89% | 987.4 hPa | 0 mm | - | - | - |
| 1776991887 | 16.11° C | 86% | 987.1 hPa | 0 mm | - | - | - |
| 1776991517 | 16.67° C | 86% | 987.1 hPa | 0 mm | - | - | - |
| 1776989721 | 18.33° C | 82% | 987.1 hPa | 0 mm | - | - | - |
| 1776987588 | 20° C | 75% | 986.7 hPa | 0 mm | - | - | - |
| 1776984316 | 25.56° C | 58% | 986.7 hPa | 0 mm | - | - | - |
| 1776983614 | 27.22° C | 48% | 986.7 hPa | 0 mm | - | - | - |
| 1776980724 | 27.78° C | 39% | 987.1 hPa | 0 mm | - | - | - |
| 1776979671 | 27.78° C | 38% | 987.1 hPa | 0 mm | - | - | - |
| 1776977130 | 27.78° C | 39% | 987.1 hPa | 0 mm | - | - | - |
* Rain since midnight (hover to see other rain measurements)
** Current wind speed in m/s (hover to see current wind gust speed)